Nearby METAR (Airport) Reports

 

KPRN - Greenville, Alabama, USA
Distance from station: WNW 17mi, 28km
Updated: Wed, 23-Oct-2019 4:56pm CDT
Clear
Clear
 Wind from NE
Wind: NE 5 mph , 7 km/h
Temperature: 72°F , 22°C
Dew Point: 34°F , 1°C
Humidity: 25%
Barometer: 30.12 inHg , 1020 hPa
Clouds: Clear
Visibility: 10 miles , 16 km
2019/10/23 21:56 KPRN 232156Z AUTO 04004KT 10SM CLR 22/01 A3012 RMK AO2 SLP198 T02220011
KTOI - Troy, Alabama, USA
Distance from station: ENE 21mi, 34km
Updated: Wed, 23-Oct-2019 4:53pm CDT
Clear
Clear
 Wind from N
Wind: N 3 mph , 6 km/h
Temperature: 72°F , 22°C
Dew Point: 39°F , 4°C
Humidity: 31%
Barometer: 30.13 inHg , 1020.3 hPa
Clouds: Clear
Visibility: 10 miles , 16 km
2019/10/23 21:53 KTOI 232153Z AUTO 36003KT 10SM CLR 22/04 A3013 RMK AO2 SLP200 T02220044
K79J - Andalusia/Opp Ar, Alabama, USA
Distance from station: S 29mi, 47km
Updated: Wed, 23-Oct-2019 4:56pm CDT
Clear
Clear
 Wind from NE
Wind: NE 5 mph , 7 km/h
Temperature: 75°F , 24°C
Dew Point: 37°F , 3°C
Humidity: 25%
Barometer: 30.11 inHg , 1019.6 hPa
Clouds: Clear
Visibility: 10 miles , 16 km
2019/10/23 21:56 K79J 232156Z AUTO 04004KT 10SM CLR 24/03 A3011 RMK AO2 SLP194 T02390033 $
 
KMGM - Montgomery, Alabama, USA
Distance from station: N 39mi, 63km
Updated: Wed, 23-Oct-2019 4:53pm CDT
Clear
Clear
 Wind from calm
Wind: Calm
Temperature: 72°F , 22°C
Dew Point: 37°F , 3°C
Humidity: 29%
Barometer: 30.14 inHg , 1020.7 hPa
Clouds: Clear
Visibility: 10 miles , 16 km
2019/10/23 21:53 KMGM 232153Z 00000KT 10SM CLR 22/03 A3014 RMK AO2 SLP203 T02220028
KMXF - Maxwell Afb/Mgm, Alabama, USA
Distance from station: N 44mi, 70km
Updated: Wed, 23-Oct-2019 4:56pm CDT
Clear
Clear
 Wind from calm
Wind: Calm
Temperature: 72°F , 22°C
Dew Point: 37°F , 3°C
Humidity: 29%
Barometer: 30.13 inHg , 1020.3 hPa
Clouds: Clear
Visibility: 10 miles , 16 km
2019/10/23 21:56 KMXF 232156Z AUTO 00000KT 10SM CLR 22/03 A3013 RMK AO2 SLP205 T02150032
KLOR - Lowe Ahp/Ft. Ruc, Alabama, USA
Distance from station: SE 44mi, 71km
Updated: Wed, 23-Oct-2019 5:27pm CDT
Haze, Clear
Haze, Clear
 Wind from NE
Wind: NE 3 mph , 6 km/h
Temperature: 70°F , 21°C
Dew Point: 41°F , 5°C
Humidity: 35%
Barometer: 30.11 inHg , 1019.6 hPa
Summary: Haze
Clouds: Clear
Visibility: 1 7/8 miles , 3 km
2019/10/23 22:27 KLOR 232227Z AUTO 04003KT 1 7/8SM HZ CLR 21/05 A3011 RMK AO2 VIS 1 7/8V4 SLP179
 
KGZH - Evergreen, Alabama, USA
Distance from station: WSW 46mi, 75km
Updated: Wed, 23-Oct-2019 4:53pm CDT
Clear
Clear
 Wind from N
Wind: N 3 mph , 6 km/h
Temperature: 73°F , 23°C
Dew Point: 39°F , 4°C
Humidity: 29%
Barometer: 30.12 inHg , 1020 hPa
Clouds: Clear
Visibility: 10 miles , 16 km
2019/10/23 21:53 KGZH 232153Z AUTO 01003KT 10SM CLR 23/04 A3012 RMK AO2 SLP199 T02330044
K0J4 - Florala Muni, Alabama, USA
Distance from station: S 47mi, 76km
Updated: Wed, 23-Oct-2019 4:58pm CDT
Clear
Clear
 Wind from NE
Wind: NE 5 mph , 7 km/h
Temperature: 73°F , 23°C
Dew Point: 37°F , 3°C
Humidity: 27%
Barometer: 30.13 inHg , 1020.3 hPa
Clouds: Clear
Visibility: 10 miles , 16 km
2019/10/23 21:58 K0J4 232158Z AUTO 05004KT 10SM CLR 23/03 A3013 RMK AO2 SLP200 T02280028
KOZR - Ozark/Cairns Aaf, Alabama, USA
Distance from station: SE 49mi, 78km
Updated: Wed, 23-Oct-2019 4:56pm CDT
Clear
Clear
 Wind from ENE
Wind: ENE 6 mph , 9 km/h
Temperature: 72°F , 22°C
Dew Point: 37°F , 3°C
Humidity: 29%
Barometer: 30.11 inHg , 1019.6 hPa
Clouds: Clear
Visibility: 10 miles , 16 km
2019/10/23 21:56 KOZR 232156Z AUTO 06005KT 10SM CLR 22/03 A3011 RMK AO2 SLP198 T02210027
 
KHEY - Ft Rucker/Hanche, Alabama, USA
Distance from station: ESE 49mi, 79km
Updated: Wed, 23-Oct-2019 4:58pm CDT
Clear
Clear
 Wind from NNE
Wind: NNE 3 mph , 6 km/h
Temperature: 72°F , 22°C
Dew Point: 36°F , 2°C
Humidity: 27%
Barometer: 30.11 inHg , 1019.6 hPa
Clouds: Clear
Visibility: 9 miles , 14 km
2019/10/23 21:58 KHEY 232158Z AUTO 02003KT 9SM CLR 22/02 A3011 RMK AO2 SLP198 T02200021
KDHN - Dothan, Alabama, USA
Distance from station: ESE 61mi, 97km
Updated: Wed, 23-Oct-2019 4:53pm CDT
Clear
Clear
 Wind from varies
Wind: varies 3 mph , 6 km/h
Temperature: 73°F , 23°C
Dew Point: 37°F , 3°C
Humidity: 27%
Barometer: 30.14 inHg , 1020.7 hPa
Clouds: Clear
Visibility: 10 miles , 16 km
2019/10/23 21:53 KDHN 232153Z VRB03KT 10SM CLR 23/03 A3014 RMK AO2 SLP204 T02280033
KCEW - Crestview, Florida, USA
Distance from station: S 66mi, 107km
Updated: Wed, 23-Oct-2019 4:53pm CDT
Clear
Clear
 Wind from N
Wind: N 5 mph , 7 km/h
Temperature: 73°F , 23°C
Dew Point: 37°F , 3°C
Humidity: 27%
Barometer: 30.12 inHg , 1020 hPa
Clouds: Clear
Visibility: 10 miles , 16 km
2019/10/23 21:53 KCEW 232153Z AUTO 01004KT 10SM CLR 23/03 A3012 RMK AO2 SLP197 T02330033
 
KEUF - Eufaula, Alabama, USA
Distance from station: ENE 73mi, 118km
Updated: Mon, 04-Mar-2019 12:58pm CST
NOT Current

 
Barometer: 30.10 inHg , 1019.3 hPa
2019/03/04 18:58 KEUF 041858Z AUTO A3010 RMK AO2 RAEMM TSB02B32 SLPNO PWINO FZRANO TSNO $
KJKA - Gulf Shores, Alabama, USA
Distance from station: SSW 132mi, 212km
Updated: Wed, 23-Oct-2019 5:35pm CDT
Clear
Clear
 Wind from calm
Wind: Calm
Temperature: 68°F , 20°C
Dew Point: 46°F , 8°C
Humidity: 46%
Barometer: 30.11 inHg , 1019.6 hPa
Clouds: Clear
Visibility: 10 miles , 16 km
2019/10/23 22:35 KJKA 232235Z AUTO 00000KT 10SM CLR 20/08 A3011 RMK AO2 T02010080
KLSF - Ft Benning/Colum, Georgia, USA
Distance from station: SNE 89mi, 143km
Updated: Wed, 23-Oct-2019 4:56pm CDT
Clear
Clear
 Wind from calm
Wind: Calm
Temperature: 72°F , 22°C
Dew Point: 37°F , 3°C
Humidity: 29%
Barometer: 30.11 inHg , 1019.6 hPa
Clouds: Clear
Visibility: 10 miles , 16 km
2019/10/23 21:56 KLSF 232156Z AUTO 00000KT 10SM CLR 22/03 A3011 RMK AO2 SLP201 T02220033
 
KMOB - Mobile/Bates, Alabama, USA
Distance from station: SW 125mi, 202km
Updated: Wed, 23-Oct-2019 4:56pm CDT
Clear
Clear
 Wind from NNE
Wind: NNE 5 mph , 7 km/h
Temperature: 73°F , 23°C
Dew Point: 39°F , 4°C
Humidity: 29%
Barometer: 30.12 inHg , 1020 hPa
Clouds: Clear
Visibility: 10 miles , 16 km
2019/10/23 21:56 KMOB 232156Z 02004KT 10SM CLR 23/04 A3012 RMK AO2 SLP197 T02280044 $
KNMM - Meridian Nas, Mississippi, USA
Distance from station: WNW 151mi, 243km
Updated: Wed, 23-Oct-2019 4:56pm CDT
Clear
Clear
 Wind from ENE
Wind: ENE 6 mph , 9 km/h
Temperature: 70°F , 21°C
Dew Point: 37°F , 3°C
Humidity: 31%
Barometer: 30.14 inHg , 1020.7 hPa
Clouds: Clear
Visibility: 10 miles , 16 km
2019/10/23 21:56 KNMM 232156Z 07005KT 10SM CLR 21/03 A3014 RMK AO2 SLP217 T02110028
KQHY - Hurlbert (Ft Walton Bch), Florida, USA
Distance from station: S 94mi, 151km
Updated: Thu, 19-Sep-2019 9:56pm CDT
NOT Current
Clear
Clear
 Wind from E
Wind: E 3 mph , 6 km/h
Temperature: 82°F , 28°C
Heat Index: 86°F , 30°C
Dew Point: 72°F , 22°C
Humidity: 70%
Barometer: 30.09 inHg , 1019 hPa
Clouds: Clear
Visibility: 10 miles , 16 km
2019/09/20 02:56 KQHY 200256Z AUTO 10003KT 10SM CLR 28/22 A3009 RMK AO2 SLP196 T02780222 52015
 
KTCL - Tuscaloosa, Alabama, USA
Distance from station: NNW 129mi, 207km
Updated: Wed, 23-Oct-2019 4:53pm CDT
Clear
Clear
 Wind from N
Wind: N 7 mph , 11 km/h
Temperature: 72°F , 22°C
Dew Point: 32°F , 0°C
Humidity: 23%
Barometer: 30.15 inHg , 1021 hPa
Clouds: Clear
Visibility: 10 miles , 16 km
2019/10/23 21:53 KTCL 232153Z 35006KT 10SM CLR 22/00 A3015 RMK AO2 SLP208 T02170000
KECP - Panama City, Florida, USA
Distance from station: SSE 122mi, 196km
Updated: Wed, 23-Oct-2019 4:53pm CDT
Clear
Clear
 Wind from N
Wind: N 7 mph , 11 km/h
Temperature: 73°F , 23°C
Dew Point: 37°F , 3°C
Humidity: 27%
Barometer: 30.09 inHg , 1019 hPa
Clouds: Clear
Visibility: 10 miles , 16 km
2019/10/23 21:53 KECP 232153Z 01006KT 10SM CLR 23/03 A3009 RMK AO2 SLP201 T02280033
KCBM - Columbus Afb, Mississippi, USA
Distance from station: NW 175mi, 282km
Updated: Wed, 23-Oct-2019 4:56pm CDT
Clear
Clear
 Wind from E
Wind: E 3 mph , 6 km/h
Temperature: 70°F , 21°C
Dew Point: 36°F , 2°C
Humidity: 29%
Barometer: 30.14 inHg , 1020.7 hPa
Clouds: Clear
Visibility: 10 miles , 16 km
2019/10/23 21:56 KCBM 232156Z AUTO 10003KT 10SM CLR 21/02 A3014 RMK AO2 SLP209 T02090017 $
 
KBHM - Birmingham, Alabama, USA
Distance from station: N 132mi, 212km
Updated: Wed, 23-Oct-2019 4:53pm CDT
Clear
Clear
 Wind from NNW
Wind: NNW 6 mph , 9 km/h
Temperature: 70°F , 21°C
Dew Point: 34°F , 1°C
Humidity: 27%
Barometer: 30.16 inHg , 1021.3 hPa
Clouds: Clear
Visibility: 10 miles , 16 km
2019/10/23 21:53 KBHM 232153Z 34005KT 10SM CLR 21/01 A3016 RMK AO2 SLP211 T02110006
KAAF - Apalachicola, Florida, USA
Distance from station: SSE 156mi, 250km
Updated: Wed, 23-Oct-2019 4:53pm CDT
Clear
Clear
 Wind from NE
Wind: NE 7 mph , 11 km/h
Temperature: 75°F , 24°C
Dew Point: 43°F , 6°C
Humidity: 31%
Barometer: 30.08 inHg , 1018.6 hPa
Clouds: Clear
Visibility: 10 miles , 16 km
2019/10/23 21:53 KAAF 232153Z AUTO 04006KT 10SM CLR 24/06 A3008 RMK AO2 SLP184 T02390061 $
KATL - Atlanta, Georgia, USA
Distance from station: NE 177mi, 287km
Updated: Wed, 23-Oct-2019 5:52pm CDT
Clear
Clear
 Wind from NE
Wind: NE 6 mph , 9 km/h
Temperature: 66°F , 19°C
Dew Point: 34°F , 1°C
Humidity: 30%
Barometer: 30.16 inHg , 1021.3 hPa
Clouds: Clear
Visibility: 10 miles , 16 km
2019/10/23 22:52 KATL 232252Z 05005KT 10SM CLR 19/01 A3016 RMK AO2 SLP212 T01890011
 
KGPT - Gulfport, Mississippi, USA
Distance from station: SW 192mi, 309km
Updated: Wed, 23-Oct-2019 4:53pm CDT
Clear
Clear
 Wind from SE
Wind: SE 8 mph , 13 km/h
Temperature: 70°F , 21°C
Dew Point: 43°F , 6°C
Humidity: 38%
Barometer: 30.11 inHg , 1019.6 hPa
Clouds: Clear
Visibility: 10 miles , 16 km
2019/10/23 21:53 KGPT 232153Z 14007KT 10SM CLR 21/06 A3011 RMK AO2 SLP195 T02110061
KNEW - New Orleans/Lake, Louisiana, USA
Distance from station: SW 255mi, 410km
Updated: Wed, 23-Oct-2019 4:53pm CDT
Clear
Clear
 Wind from ESE
Wind: ESE 13 mph , 20 km/h
Temperature: 70°F , 21°C
Dew Point: 43°F , 6°C
Humidity: 38%
Barometer: 30.12 inHg , 1020 hPa
Clouds: Clear
Visibility: 10 miles , 16 km
2019/10/23 21:53 KNEW 232153Z 11011KT 10SM CLR 21/06 A3012 RMK AO2 SLP194 T02060061
KP92 - Salt Point, Louisiana, USA
Distance from station: SW 347mi, 559km
Updated: Wed, 23-Oct-2019 4:53pm CDT

 Wind from SE
Wind: SE 8 mph , 13 km/h
Temperature: 72°F , 22°C
Dew Point: 46°F , 8°C
Humidity: 41%
Barometer: 30.08 inHg , 1018.6 hPa
2019/10/23 21:53 KP92 232153Z AUTO 13007KT 22/08 A3008 RMK AO1 SLP186 T02220083